Terminal Aerodrome Forecast
Issued by NWS Shreveport, LA

Home | Current Version | Previous Version | Text Only | Print | Product List | Glossary On
Versions: 1 2 3 4 5 6 7 8 9 10 11 12 13 14 15 16
000
FTUS44 KSHV 301136
TAFGGG
TAF
KGGG 301136Z 3012/3112 VRB03KT P6SM FEW250
     FM301500 06006KT P6SM FEW250
     FM301700 07006KT P6SM SCT035 SCT250
     FM301900 06006KT P6SM BKN045
     FM310100 06003KT P6SM FEW060 SCT110 SCT250
     FM310600 05003KT P6SM FEW250=

USA.gov is the U.S. government's official web portal to all federal, state and local government web resources and services.